createdAt,value
2019-05-11T00:01:42.906Z,10.06
2019-05-11T00:04:15.613Z,10.03
2019-05-11T00:06:47.274Z,10.03
2019-05-11T00:09:19.116Z,10.05
2019-05-11T00:11:51.200Z,10.04
2019-05-11T00:14:23.268Z,10.02
2019-05-11T00:16:54.922Z,9.98
2019-05-11T00:19:26.780Z,9.93
2019-05-11T00:21:58.752Z,9.94
2019-05-11T00:24:30.511Z,9.94
2019-05-11T00:27:02.474Z,9.95
2019-05-11T00:29:34.525Z,9.95
2019-05-11T00:32:06.520Z,9.94
2019-05-11T00:34:39.489Z,9.84
2019-05-11T00:37:11.231Z,9.77
2019-05-11T00:39:43.000Z,9.73
2019-05-11T00:42:14.953Z,9.73
2019-05-11T00:44:47.655Z,9.73
2019-05-11T00:47:19.621Z,9.73
2019-05-11T00:49:51.465Z,9.70
2019-05-11T00:52:23.344Z,9.68
2019-05-11T00:54:55.203Z,9.70
2019-05-11T00:57:27.150Z,9.74
2019-05-11T00:59:59.013Z,9.79
2019-05-11T01:02:30.965Z,9.83
2019-05-11T01:05:02.861Z,9.88
2019-05-11T01:07:34.810Z,9.91
2019-05-11T01:10:21.756Z,9.94
2019-05-11T01:12:41.517Z,9.94
2019-05-11T01:15:13.814Z,9.96
2019-05-11T01:18:04.801Z,9.99
2019-05-11T01:20:36.454Z,10.02
2019-05-11T01:23:08.510Z,10.06
2019-05-11T01:25:40.183Z,10.12
2019-05-11T01:28:12.048Z,10.17
2019-05-11T01:30:43.806Z,10.25
2019-05-11T01:33:15.855Z,10.30
2019-05-11T01:35:50.997Z,10.34
2019-05-11T01:38:20.931Z,10.37
2019-05-11T01:40:58.516Z,10.40
2019-05-11T01:43:26.825Z,10.39
2019-05-11T01:45:58.537Z,10.39
2019-05-11T01:48:30.626Z,10.40
2019-05-11T01:51:02.509Z,10.38
2019-05-11T01:53:35.581Z,10.37
2019-05-11T01:56:07.979Z,10.34
2019-05-11T01:58:40.022Z,10.28
2019-05-11T02:01:12.194Z,10.23
2019-05-11T02:03:44.464Z,10.16
2019-05-11T02:06:16.102Z,10.08
2019-05-11T02:08:47.860Z,9.99
2019-05-11T02:11:19.568Z,9.85
2019-05-11T02:13:51.917Z,9.73
2019-05-11T02:16:23.554Z,9.64
2019-05-11T02:18:55.614Z,9.58
2019-05-11T02:21:27.501Z,9.50
2019-05-11T02:23:59.668Z,9.44
2019-05-11T02:26:31.306Z,9.40
2019-05-11T02:29:03.193Z,9.37
2019-05-11T02:31:34.947Z,9.36
2019-05-11T02:34:06.793Z,9.35
2019-05-11T02:36:39.085Z,9.37
2019-05-11T02:39:11.134Z,9.42
2019-05-11T02:41:43.097Z,9.43
2019-05-11T02:44:15.151Z,9.44
2019-05-11T02:46:47.230Z,9.45
2019-05-11T02:49:19.033Z,9.46
2019-05-11T02:51:51.068Z,9.46
2019-05-11T02:54:22.813Z,9.48
2019-05-11T02:56:54.589Z,9.50
2019-05-11T02:59:29.819Z,9.53
2019-05-11T03:02:00.684Z,9.55
2019-05-11T03:04:32.631Z,9.58
2019-05-11T03:07:04.484Z,9.60
2019-05-11T03:09:36.667Z,9.62
2019-05-11T03:12:08.324Z,9.65
2019-05-11T03:14:40.285Z,9.68
2019-05-11T03:17:19.727Z,9.76
2019-05-11T03:19:51.475Z,9.87
2019-05-11T03:22:24.582Z,9.97
2019-05-11T03:24:56.438Z,10.05
2019-05-11T03:27:28.405Z,10.15
2019-05-11T03:30:01.648Z,10.28
2019-05-11T03:32:34.117Z,10.39
2019-05-11T03:35:06.642Z,10.51
2019-05-11T03:37:38.309Z,10.61
2019-05-11T03:40:10.591Z,10.72
2019-05-11T03:42:42.233Z,10.81
2019-05-11T03:45:14.719Z,10.89
2019-05-11T03:47:46.482Z,10.99
2019-05-11T03:50:18.526Z,11.07
2019-05-11T03:52:50.215Z,11.13
2019-05-11T03:55:22.100Z,11.19
2019-05-11T03:57:54.578Z,11.29
2019-05-11T04:00:26.716Z,11.34
2019-05-11T04:02:58.478Z,11.40
2019-05-11T04:05:30.202Z,11.47
2019-05-11T04:08:03.425Z,11.56
2019-05-11T04:10:35.288Z,11.65
2019-05-11T04:13:07.152Z,11.72
2019-05-11T04:15:38.751Z,11.82
2019-05-11T04:18:10.755Z,11.93
2019-05-11T04:20:42.861Z,12.05
2019-05-11T04:23:14.503Z,12.17
2019-05-11T04:25:46.566Z,12.30
2019-05-11T04:28:18.329Z,12.43
2019-05-11T04:30:50.494Z,12.57
2019-05-11T04:33:22.152Z,12.74
2019-05-11T04:35:53.915Z,12.94
2019-05-11T04:38:25.458Z,13.10
2019-05-11T04:40:57.239Z,13.27
2019-05-11T04:43:29.189Z,13.44
2019-05-11T04:46:01.037Z,13.66
2019-05-11T04:48:33.365Z,13.91
2019-05-11T04:51:05.078Z,14.15
2019-05-11T04:53:37.092Z,14.39
2019-05-11T04:56:09.131Z,14.64
2019-05-11T04:58:41.175Z,14.86
2019-05-11T05:01:12.836Z,15.03
2019-05-11T05:03:47.364Z,15.19
2019-05-11T05:06:23.978Z,15.29
2019-05-11T05:08:58.315Z,15.45
2019-05-11T05:11:30.596Z,15.59
2019-05-11T05:14:02.208Z,15.85
2019-05-11T05:16:33.411Z,16.13
2019-05-11T05:19:08.634Z,16.38
2019-05-11T05:21:41.226Z,16.67
2019-05-11T05:24:13.821Z,16.98
2019-05-11T05:26:45.562Z,17.25
2019-05-11T05:29:19.248Z,17.44
2019-05-11T05:31:51.122Z,17.55
2019-05-11T05:34:25.135Z,17.47
2019-05-11T05:36:56.689Z,17.39
2019-05-11T05:39:29.344Z,17.41
2019-05-11T05:42:02.273Z,17.41
2019-05-11T05:44:38.034Z,17.47
2019-05-11T05:47:10.293Z,17.48
2019-05-11T05:49:42.026Z,17.42
2019-05-11T05:52:13.809Z,17.43
2019-05-11T05:54:45.851Z,17.44
2019-05-11T05:57:17.835Z,17.43
2019-05-11T05:59:49.913Z,17.41
2019-05-11T06:02:21.645Z,17.49
2019-05-11T06:04:54.166Z,17.58
2019-05-11T06:07:26.311Z,17.58
2019-05-11T06:09:58.482Z,17.58
2019-05-11T06:12:30.431Z,17.62
2019-05-11T06:15:02.338Z,17.60
2019-05-11T06:17:34.360Z,17.57
2019-05-11T06:20:08.120Z,17.56
2019-05-11T06:22:40.553Z,17.60
2019-05-11T06:25:12.363Z,17.67
2019-05-11T06:27:44.266Z,17.81
2019-05-11T06:30:17.679Z,18.01
2019-05-11T06:32:49.726Z,18.22
2019-05-11T06:35:22.736Z,18.35
2019-05-11T06:37:54.482Z,18.48
2019-05-11T06:40:45.227Z,18.55
2019-05-11T06:43:17.452Z,18.66
2019-05-11T06:45:49.217Z,18.76
2019-05-11T06:48:22.927Z,18.82
2019-05-11T06:50:55.128Z,18.91
2019-05-11T06:53:26.845Z,18.85
2019-05-11T06:55:58.702Z,18.80
2019-05-11T06:58:30.579Z,18.80
2019-05-11T07:01:02.529Z,18.82
2019-05-11T07:03:35.204Z,18.92
2019-05-11T07:06:07.073Z,19.10
2019-05-11T07:08:39.250Z,19.40
2019-05-11T07:11:10.905Z,19.57
2019-05-11T07:13:42.969Z,19.72
2019-05-11T07:16:15.025Z,19.94
2019-05-11T07:18:46.879Z,20.10
2019-05-11T07:21:18.942Z,20.10
2019-05-11T07:23:50.922Z,19.98
2019-05-11T07:26:22.762Z,19.89
2019-05-11T07:28:54.343Z,19.79
2019-05-11T07:31:26.519Z,19.71
2019-05-11T07:33:59.076Z,19.67
2019-05-11T07:36:31.061Z,19.83
2019-05-11T07:39:02.718Z,20.02
2019-05-11T07:41:35.608Z,20.28
2019-05-11T07:44:09.787Z,20.52
2019-05-11T07:46:40.659Z,20.73
2019-05-11T07:49:12.628Z,20.87
2019-05-11T07:51:44.365Z,21.07
2019-05-11T07:54:18.579Z,21.29
2019-05-11T07:56:49.756Z,21.52
2019-05-11T07:59:21.592Z,21.75
2019-05-11T08:01:54.398Z,22.02
2019-05-11T08:04:28.751Z,22.29
2019-05-11T08:07:00.782Z,22.33
2019-05-11T08:09:32.749Z,22.30
2019-05-11T08:12:04.919Z,22.18
2019-05-11T08:14:55.810Z,22.21
2019-05-11T08:17:10.193Z,22.16
2019-05-11T08:19:43.065Z,21.84
2019-05-11T08:22:14.829Z,21.66
2019-05-11T08:24:48.150Z,21.52
2019-05-11T08:27:19.994Z,21.41
2019-05-11T08:29:52.056Z,21.32
2019-05-11T08:32:23.813Z,21.31
2019-05-11T08:34:57.948Z,21.26
2019-05-11T08:37:30.180Z,21.33
2019-05-11T08:40:03.237Z,21.39
2019-05-11T08:42:34.831Z,21.53
2019-05-11T08:45:19.403Z,21.59
2019-05-11T08:47:40.312Z,21.62
2019-05-11T08:50:15.256Z,21.49
2019-05-11T08:52:47.866Z,21.54
2019-05-11T08:55:19.138Z,21.69
2019-05-11T08:57:52.246Z,21.80
2019-05-11T09:00:24.386Z,22.06
2019-05-11T09:02:58.268Z,22.19
2019-05-11T09:05:29.299Z,22.35
2019-05-11T09:08:01.343Z,22.36
2019-05-11T09:10:36.725Z,22.34
2019-05-11T09:13:08.024Z,22.32
2019-05-11T09:15:40.864Z,22.23
2019-05-11T09:18:12.582Z,22.07
2019-05-11T09:20:44.559Z,21.89
2019-05-11T09:23:30.953Z,21.57
2019-05-11T09:25:49.721Z,21.24
2019-05-11T09:28:21.479Z,21.03
2019-05-11T09:30:53.545Z,20.86
2019-05-11T09:33:25.389Z,20.67
2019-05-11T09:35:58.375Z,20.59
2019-05-11T09:38:30.259Z,20.55
2019-05-11T09:41:02.007Z,20.56
2019-05-11T09:43:33.966Z,20.36
2019-05-11T09:46:08.207Z,20.21
2019-05-11T09:48:39.763Z,20.06
2019-05-11T09:51:11.416Z,20.08
2019-05-11T09:53:43.175Z,20.27
2019-05-11T09:56:15.014Z,20.39
2019-05-11T09:58:48.095Z,20.60
2019-05-11T10:01:20.080Z,20.75
2019-05-11T10:03:52.154Z,20.90
2019-05-11T10:06:24.864Z,20.99
2019-05-11T10:08:57.890Z,20.99
2019-05-11T10:11:29.935Z,20.94
2019-05-11T10:14:02.058Z,20.88
2019-05-11T10:16:34.020Z,20.89
2019-05-11T10:19:08.279Z,20.88
2019-05-11T10:21:39.829Z,20.84
2019-05-11T10:24:11.868Z,20.79
2019-05-11T10:26:43.507Z,20.76
2019-05-11T10:29:15.360Z,20.79
2019-05-11T10:31:48.105Z,20.87
2019-05-11T10:34:20.008Z,21.01
2019-05-11T10:36:51.893Z,21.12
2019-05-11T10:39:23.993Z,21.11
2019-05-11T10:41:58.109Z,20.99
2019-05-11T10:44:29.122Z,20.63
2019-05-11T10:47:01.083Z,20.52
2019-05-11T10:49:33.146Z,20.61
2019-05-11T10:52:04.682Z,20.74
2019-05-11T10:54:39.729Z,20.78
2019-05-11T10:59:40.700Z,20.82
2019-05-11T11:02:12.768Z,20.89
2019-05-11T11:04:44.429Z,20.99
2019-05-11T11:07:19.292Z,21.08
2019-05-11T11:09:49.887Z,21.21
2019-05-11T11:12:21.726Z,21.36
2019-05-11T11:14:53.474Z,21.49
2019-05-11T11:17:25.575Z,21.52
2019-05-11T11:19:58.026Z,21.45
2019-05-11T11:22:39.394Z,21.41
2019-05-11T11:25:03.197Z,21.32
2019-05-11T11:27:37.947Z,21.21
2019-05-11T11:30:09.630Z,20.99
2019-05-11T11:32:41.648Z,20.71
2019-05-11T11:35:14.007Z,20.41
2019-05-11T11:37:47.806Z,20.13
2019-05-11T11:40:20.197Z,19.95
2019-05-11T11:42:51.995Z,19.74
2019-05-11T11:45:24.104Z,19.52
2019-05-11T11:47:57.889Z,19.25
2019-05-11T11:50:29.590Z,19.09
2019-05-11T11:53:01.279Z,18.91
2019-05-11T11:55:33.314Z,18.81
2019-05-11T11:58:05.370Z,18.76
2019-05-11T12:00:39.341Z,18.73
2019-05-11T12:03:12.940Z,18.74
2019-05-11T12:05:47.648Z,18.66
2019-05-11T12:08:19.250Z,18.58
2019-05-11T12:10:51.010Z,18.52
2019-05-11T12:13:22.789Z,18.57
2019-05-11T12:15:54.643Z,18.57
2019-05-11T12:18:28.652Z,18.56
2019-05-11T12:21:00.908Z,18.51
2019-05-11T12:23:32.763Z,18.46
2019-05-11T12:26:04.849Z,18.44
2019-05-11T12:28:38.166Z,18.35
2019-05-11T12:31:10.000Z,18.27
2019-05-11T12:33:41.976Z,18.04
2019-05-11T12:36:14.016Z,17.89
2019-05-11T12:38:48.559Z,17.70
2019-05-11T12:41:19.476Z,17.48
2019-05-11T12:43:51.539Z,17.34
2019-05-11T12:46:23.510Z,17.27
2019-05-11T12:48:57.263Z,17.24
2019-05-11T12:51:28.555Z,17.24
2019-05-11T12:54:00.384Z,17.26
2019-05-11T12:56:32.277Z,17.32
2019-05-11T12:59:04.253Z,17.43
2019-05-11T13:01:38.133Z,17.60
2019-05-11T13:04:10.724Z,17.81
2019-05-11T13:06:42.479Z,17.95
2019-05-11T13:09:14.714Z,18.04
2019-05-11T13:11:48.156Z,18.08
2019-05-11T13:14:20.027Z,18.10
2019-05-11T13:16:51.897Z,18.06
2019-05-11T13:19:23.893Z,18.05
2019-05-11T13:21:55.906Z,18.05
2019-05-11T13:24:28.318Z,18.08
2019-05-11T13:27:00.312Z,18.11
2019-05-11T13:29:32.011Z,18.09
2019-05-11T13:32:04.979Z,18.06
2019-05-11T13:34:38.722Z,18.10
2019-05-11T13:37:10.558Z,18.12
2019-05-11T13:39:42.418Z,18.18
2019-05-11T13:42:14.057Z,18.42
2019-05-11T13:44:47.831Z,18.75
2019-05-11T13:47:19.554Z,19.07
2019-05-11T13:49:51.684Z,19.41
2019-05-11T13:52:23.872Z,19.73
2019-05-11T13:54:55.585Z,19.89
2019-05-11T13:57:28.638Z,20.07
2019-05-11T14:00:00.429Z,20.24
2019-05-11T14:02:32.055Z,20.49
2019-05-11T14:05:04.146Z,20.62
2019-05-11T14:07:37.956Z,20.66
2019-05-11T14:10:10.186Z,20.68
2019-05-11T14:12:41.826Z,20.72
2019-05-11T14:15:15.241Z,20.77
2019-05-11T14:17:48.586Z,20.88
2019-05-11T14:20:21.081Z,21.06
2019-05-11T14:22:53.259Z,21.44
2019-05-11T14:25:25.028Z,21.69
2019-05-11T14:27:59.401Z,21.77
2019-05-11T14:30:30.461Z,21.91
2019-05-11T14:33:02.523Z,22.01
2019-05-11T14:35:34.723Z,22.11
2019-05-11T14:38:08.042Z,21.74
2019-05-11T14:40:39.783Z,21.32
2019-05-11T14:43:11.299Z,20.97
2019-05-11T14:45:43.145Z,20.61
2019-05-11T14:48:24.038Z,20.25
2019-05-11T14:50:48.976Z,20.02
2019-05-11T14:53:20.749Z,19.72
2019-05-11T14:55:52.340Z,19.59
2019-05-11T14:58:23.894Z,19.57
2019-05-11T15:00:55.460Z,19.43
2019-05-11T15:03:28.734Z,19.21
2019-05-11T15:06:00.515Z,19.04
2019-05-11T15:08:33.586Z,18.88
2019-05-11T15:11:08.271Z,18.78
2019-05-11T15:13:40.814Z,18.61
2019-05-11T15:16:12.672Z,18.46
2019-05-11T15:18:44.432Z,18.33
2019-05-11T15:21:18.654Z,18.23
2019-05-11T15:23:49.688Z,18.05
2019-05-11T15:26:21.454Z,17.94
2019-05-11T15:28:53.202Z,17.82
2019-05-11T15:31:27.715Z,17.67
2019-05-11T15:33:58.866Z,17.51
2019-05-11T15:36:30.936Z,17.38
2019-05-11T15:39:03.110Z,17.25
2019-05-11T15:41:35.145Z,17.13
2019-05-11T15:44:11.324Z,17.02
2019-05-11T15:46:40.990Z,16.90
2019-05-11T15:49:12.571Z,16.80
2019-05-11T15:51:44.137Z,16.72
2019-05-11T15:54:18.484Z,16.59
2019-05-11T15:56:50.528Z,16.48
2019-05-11T15:59:22.576Z,16.41
2019-05-11T16:01:54.825Z,16.30
2019-05-11T16:04:28.084Z,16.24
2019-05-11T16:07:00.834Z,16.13
2019-05-11T16:09:32.775Z,16.06
2019-05-11T16:12:04.756Z,15.97
2019-05-11T16:14:39.817Z,15.89
2019-05-11T16:17:15.647Z,15.81
2019-05-11T16:19:49.071Z,15.75
2019-05-11T16:22:21.622Z,15.69
2019-05-11T16:24:53.712Z,15.66
2019-05-11T16:27:28.354Z,15.62
2019-05-11T16:29:59.761Z,15.58
2019-05-11T16:32:31.520Z,15.54
2019-05-11T16:35:03.490Z,15.48
2019-05-11T16:37:37.839Z,15.44
2019-05-11T16:40:09.725Z,15.42
2019-05-11T16:42:41.296Z,15.38
2019-05-11T16:45:13.352Z,15.32
2019-05-11T16:47:45.018Z,15.28
2019-05-11T16:50:18.184Z,15.24
2019-05-11T16:52:50.194Z,15.18
2019-05-11T16:55:26.147Z,15.13
2019-05-11T16:57:58.771Z,15.09
2019-05-11T17:00:30.992Z,15.05
2019-05-11T17:03:03.197Z,15.00
2019-05-11T17:05:38.066Z,14.94
2019-05-11T17:08:10.271Z,14.89
2019-05-11T17:10:44.283Z,14.83
2019-05-11T17:13:18.079Z,14.78
2019-05-11T17:15:49.843Z,14.74
2019-05-11T17:18:22.505Z,14.70
2019-05-11T17:20:55.053Z,14.66
2019-05-11T17:23:30.884Z,14.61
2019-05-11T17:26:03.510Z,14.54
2019-05-11T17:28:35.391Z,14.48
2019-05-11T17:31:08.058Z,14.40
2019-05-11T17:33:40.244Z,14.32
2019-05-11T17:36:12.173Z,14.24
2019-05-11T17:38:47.906Z,14.15
2019-05-11T17:41:19.850Z,14.07
2019-05-11T17:43:51.884Z,13.99
2019-05-11T17:46:23.734Z,13.91
2019-05-11T17:48:55.804Z,13.84
2019-05-11T17:51:28.706Z,13.76
2019-05-11T17:54:00.553Z,13.70
2019-05-11T17:56:32.611Z,13.62
2019-05-11T17:59:04.455Z,13.55
2019-05-11T18:01:41.592Z,13.47
2019-05-11T18:04:14.434Z,13.41
2019-05-11T18:06:48.171Z,13.41
2019-05-11T18:09:21.441Z,13.37
2019-05-11T18:11:53.404Z,13.33
2019-05-11T18:14:28.013Z,13.29
2019-05-11T18:16:59.289Z,13.25
2019-05-11T18:19:31.492Z,13.18
2019-05-11T18:22:03.607Z,13.13
2019-05-11T18:24:38.265Z,13.09
2019-05-11T18:27:11.097Z,13.04
2019-05-11T18:29:44.432Z,13.01
2019-05-11T18:32:16.955Z,12.97
2019-05-11T18:34:49.416Z,12.96
2019-05-11T18:37:22.602Z,12.93
2019-05-11T18:39:54.418Z,12.89
2019-05-11T18:42:26.287Z,12.85
2019-05-11T18:45:00.259Z,12.80
2019-05-11T18:47:31.842Z,12.75
2019-05-11T18:50:04.099Z,12.73
2019-05-11T18:52:36.578Z,12.72
2019-05-11T18:55:09.267Z,12.70
2019-05-11T18:57:41.231Z,12.74
2019-05-11T19:00:13.221Z,12.77
2019-05-11T19:02:49.546Z,12.78
2019-05-11T19:05:20.988Z,12.78
2019-05-11T19:07:52.848Z,12.73
2019-05-11T19:10:25.022Z,12.67
2019-05-11T19:12:58.945Z,12.60
2019-05-11T19:15:31.028Z,12.51
2019-05-11T19:18:03.119Z,12.45
2019-05-11T19:20:45.255Z,12.38
2019-05-11T19:23:09.427Z,12.32
2019-05-11T19:25:42.030Z,12.26
2019-05-11T19:28:14.193Z,12.19
2019-05-11T19:30:48.643Z,12.11
2019-05-11T19:33:19.807Z,12.05
2019-05-11T19:35:52.003Z,12.00
2019-05-11T19:38:23.965Z,11.97
2019-05-11T19:40:55.609Z,11.90
2019-05-11T19:43:27.747Z,11.87
2019-05-11T19:45:59.625Z,11.82
2019-05-11T19:48:31.690Z,11.78
2019-05-11T19:51:08.120Z,11.73
2019-05-11T19:53:38.616Z,11.71
2019-05-11T19:56:10.296Z,11.71
2019-05-11T19:58:42.260Z,11.72
2019-05-11T20:01:14.344Z,11.75
2019-05-11T20:03:47.422Z,11.78
2019-05-11T20:06:19.374Z,11.81
2019-05-11T20:08:51.123Z,11.83
2019-05-11T20:11:24.002Z,11.78
2019-05-11T20:13:55.763Z,11.75
2019-05-11T20:16:27.626Z,11.70
2019-05-11T20:18:59.799Z,11.66
2019-05-11T20:21:31.856Z,11.63
2019-05-11T20:24:05.164Z,11.50
2019-05-11T20:26:37.837Z,11.50
2019-05-11T20:29:09.902Z,11.43
2019-05-11T20:31:41.560Z,11.38
2019-05-11T20:34:13.325Z,11.27
2019-05-11T20:36:47.965Z,11.16
2019-05-11T20:39:19.173Z,11.07
2019-05-11T20:41:51.149Z,10.99
2019-05-11T20:44:22.941Z,10.96
2019-05-11T20:46:54.860Z,10.97
2019-05-11T20:49:28.284Z,10.98
2019-05-11T20:52:00.136Z,11.05
2019-05-11T20:54:31.870Z,11.12
2019-05-11T20:57:03.755Z,11.20
2019-05-11T20:59:38.070Z,11.23
2019-05-11T21:02:09.407Z,11.25
2019-05-11T21:04:42.296Z,11.28
2019-05-11T21:07:14.307Z,11.26
2019-05-11T21:09:48.249Z,11.24
2019-05-11T21:12:21.004Z,11.23
2019-05-11T21:14:52.899Z,11.19
2019-05-11T21:17:24.445Z,11.16
2019-05-11T21:19:56.603Z,11.13
2019-05-11T21:22:29.382Z,11.11
2019-05-11T21:25:01.790Z,11.03
2019-05-11T21:27:34.675Z,10.96
2019-05-11T21:30:10.627Z,10.88
2019-05-11T21:32:42.382Z,10.82
2019-05-11T21:35:14.751Z,10.78
2019-05-11T21:37:48.761Z,10.74
2019-05-11T21:40:20.612Z,10.71
2019-05-11T21:42:52.797Z,10.69
2019-05-11T21:45:24.748Z,10.69
2019-05-11T21:47:58.056Z,10.67
2019-05-11T21:50:30.895Z,10.65
2019-05-11T21:53:02.709Z,10.59
2019-05-11T21:55:34.862Z,10.50
2019-05-11T21:58:09.007Z,10.43
2019-05-11T22:00:40.630Z,10.36
2019-05-11T22:03:12.594Z,10.26
2019-05-11T22:05:44.349Z,10.16
2019-05-11T22:08:17.868Z,10.08
2019-05-11T22:10:49.924Z,10.03
2019-05-11T22:13:21.759Z,9.99
2019-05-11T22:15:53.893Z,9.92
2019-05-11T22:18:30.969Z,9.85
2019-05-11T22:20:58.879Z,9.78
2019-05-11T22:23:30.696Z,9.71
2019-05-11T22:26:02.397Z,9.67
2019-05-11T22:28:34.074Z,9.63
2019-05-11T22:31:07.806Z,9.61
2019-05-11T22:33:39.938Z,9.56
2019-05-11T22:36:11.576Z,9.53
2019-05-11T22:38:43.757Z,9.51
2019-05-11T22:41:17.968Z,9.50
2019-05-11T22:43:49.201Z,9.50
2019-05-11T22:46:21.499Z,9.51
2019-05-11T22:48:53.270Z,9.48
2019-05-11T22:51:25.441Z,9.44
2019-05-11T22:53:59.140Z,9.39
2019-05-11T22:56:31.394Z,9.35
2019-05-11T22:59:02.943Z,9.30
2019-05-11T23:01:34.807Z,9.23
2019-05-11T23:04:06.607Z,9.13
2019-05-11T23:06:40.455Z,9.07
2019-05-11T23:09:12.134Z,9.01
2019-05-11T23:11:43.877Z,8.95
2019-05-11T23:14:17.718Z,8.91
2019-05-11T23:16:49.976Z,8.88
2019-05-11T23:19:21.818Z,8.84
2019-05-11T23:21:54.159Z,8.84
2019-05-11T23:24:28.572Z,8.90
2019-05-11T23:27:00.263Z,8.94
2019-05-11T23:29:32.131Z,8.96
2019-05-11T23:32:04.489Z,8.97
2019-05-11T23:34:38.589Z,8.99
2019-05-11T23:37:09.639Z,8.96
2019-05-11T23:39:41.553Z,8.92
2019-05-11T23:42:13.599Z,8.91
2019-05-11T23:44:47.922Z,8.92
2019-05-11T23:47:20.361Z,8.90
2019-05-11T23:49:53.061Z,8.86
2019-05-11T23:52:24.805Z,8.86
2019-05-11T23:54:58.833Z,8.88
2019-05-11T23:57:33.062Z,8.86
